Time;durP1;ratioP1;P1;durP2;ratioP2;P2;SDS_P1;SDS_P2;PMS_P1;PMS_P2;Temp;Humidity;BMP_temperature;BMP_pressure;BME280_temperature;BME280_humidity;BME280_pressure;Samples;Min_cycle;Max_cycle;Signal;HPM_P1;HPM_P2
2022/08/16 00:00:25;;;;;;;;;;;;;;;25.11;67.09;100161.59;5000858;28;5271;-68
2022/08/16 00:02:52;;;;;;;;;;;;;;;25.11;67.16;100167.38;5000848;28;5246;-68
2022/08/16 00:05:18;;;;;;;;;;;;;;;25.09;66.99;100171.69;5001405;28;4266;-69
2022/08/16 00:07:45;;;;;;;;;;;;;;;25.10;67.16;100169.53;5001069;28;5169;-68
2022/08/16 00:10:12;;;;;;;;;;;;;;;25.11;67.11;100173.91;5000193;28;4065;-68
2022/08/16 00:12:46;;;;;;;;;;;;;;;25.11;67.14;100176.78;4999995;28;4047;-69
2022/08/16 00:15:25;;;;;;;;;;;;;;;25.11;66.91;100178.97;4998278;28;5198;-66
2022/08/16 00:18:12;;;;;;;;;;;;;;;25.12;66.83;100180.41;4999733;28;5291;-69
2022/08/16 00:20:40;;;;;;;;;;;;;;;25.11;66.90;100176.06;5000121;28;4213;-69
2022/08/16 00:23:08;;;;;;;;;;;;;;;25.11;66.86;100184.75;5000685;28;4424;-68
2022/08/16 00:25:35;;;;;;;;;;;;;;;25.11;66.81;100187.66;4998758;28;4351;-67
2022/08/16 00:28:22;;;;;;;;;;;;;;;25.11;66.92;100184.75;5000206;28;4184;-67
2022/08/16 00:30:53;;;;;;;;;;;;;;;25.11;66.85;100185.47;5000263;28;5543;-66
2022/08/16 00:33:24;;;;;;;;;;;;;;;25.12;66.68;100189.09;4996149;28;4536;-67
2022/08/16 00:35:51;;;;;;;;;;;;;;;25.12;66.79;100189.09;5000700;28;4615;-68
2022/08/16 00:38:20;;;;;;;;;;;;;;;25.11;66.94;100190.56;4999509;28;4272;-66
2022/08/16 00:41:07;;;;;;;;;;;;;;;25.12;66.65;100183.31;5000182;28;4592;-69
2022/08/16 00:43:34;;;;;;;;;;;;;;;25.11;66.81;100184.75;4999906;28;4223;-69
2022/08/16 00:46:14;;;;;;;;;;;;;;;25.12;66.69;100180.41;5002513;28;4178;-69
2022/08/16 00:49:00;;;;;;;;;;;;;;;25.11;66.79;100179.69;4998856;28;4924;-69
2022/08/16 00:51:27;;;;;;;;;;;;;;;25.11;66.73;100178.97;4999377;28;4202;-69
2022/08/16 00:53:56;;;;;;;;;;;;;;;25.11;66.61;100190.56;4998382;28;4140;-69
2022/08/16 00:56:23;;;;;;;;;;;;;;;25.12;66.67;100192.72;4999123;28;4055;-69
2022/08/16 00:59:10;;;;;;;;;;;;;;;25.12;66.60;100189.09;5011544;28;4170;-68
2022/08/16 01:01:40;;;;;;;;;;;;;;;25.12;66.61;100186.22;4999733;28;4199;-68
2022/08/16 01:04:07;;;;;;;;;;;;;;;25.12;66.50;100192.00;4999271;28;3957;-69
2022/08/16 01:06:53;;;;;;;;;;;;;;;25.12;66.63;100197.78;4996935;28;4308;-67
2022/08/16 01:09:27;;;;;;;;;;;;;;;25.12;66.50;100198.53;4997581;28;4186;-67
2022/08/16 01:11:59;;;;;;;;;;;;;;;25.12;66.53;100203.59;4998510;28;4176;-67
2022/08/16 01:14:28;;;;;;;;;;;;;;;25.12;66.44;100198.53;5000042;28;4416;-67
2022/08/16 01:19:51;;;;;;;;;;;;;;;25.13;66.52;100207.94;4982931;28;4225;-67
2022/08/16 01:22:36;;;;;;;;;;;;;;;25.12;66.49;100203.59;4998848;28;4210;-69
2022/08/16 01:25:28;;;;;;;;;;;;;;;25.13;66.43;100205.03;5003791;28;4247;-69
2022/08/16 01:28:00;;;;;;;;;;;;;;;25.13;66.45;100199.25;4982704;28;4222;-69
2022/08/16 01:30:28;;;;;;;;;;;;;;;25.13;66.54;100213.75;4991549;28;4220;-69
2022/08/16 01:32:55;;;;;;;;;;;;;;;25.13;66.43;100207.94;4982259;28;4036;-69
2022/08/16 01:35:50;;;;;;;;;;;;;;;25.13;66.52;100213.75;5001574;28;5226;-69
2022/08/16 01:38:22;;;;;;;;;;;;;;;25.14;66.53;100218.09;4998500;28;4529;-68
2022/08/16 01:40:54;;;;;;;;;;;;;;;25.13;66.45;100217.38;4997805;28;4055;-69
2022/08/16 01:43:22;;;;;;;;;;;;;;;25.14;66.45;100213.03;4994404;28;4107;-69
2022/08/16 01:45:51;;;;;;;;;;;;;;;25.14;66.28;100218.09;5002570;28;4355;-66
2022/08/16 01:48:23;;;;;;;;;;;;;;;25.14;66.17;100206.53;4998796;28;4301;-66
2022/08/16 01:50:52;;;;;;;;;;;;;;;25.14;66.22;100212.31;4982584;28;5375;-66
2022/08/16 01:53:39;;;;;;;;;;;;;;;25.14;66.36;100221.00;4998091;28;5356;-65
2022/08/16 01:56:14;;;;;;;;;;;;;;;25.14;66.44;100221.72;4998609;28;4149;-66
2022/08/16 01:58:50;;;;;;;;;;;;;;;25.13;66.35;100217.38;4997950;28;4279;-66
2022/08/16 02:01:17;;;;;;;;;;;;;;;25.13;66.35;100220.28;5014374;28;4057;-66
2022/08/16 02:03:43;;;;;;;;;;;;;;;25.12;66.31;100224.59;4997051;28;4167;-67
2022/08/16 02:06:16;;;;;;;;;;;;;;;25.14;66.28;100221.00;4999515;28;3965;-66
2022/08/16 02:09:00;;;;;;;;;;;;;;;25.14;66.11;100218.09;4998004;28;5295;-67
2022/08/16 02:11:27;;;;;;;;;;;;;;;25.13;66.38;100217.38;5013803;28;5081;-66
2022/08/16 02:14:13;;;;;;;;;;;;;;;25.13;66.22;100216.63;4997987;28;4087;-65
2022/08/16 02:16:48;;;;;;;;;;;;;;;25.11;66.13;100217.34;4997485;28;4137;-66
2022/08/16 02:19:17;;;;;;;;;;;;;;;25.11;66.08;100217.34;4996781;28;4196;-67
2022/08/16 02:21:51;;;;;;;;;;;;;;;25.09;66.01;100223.09;4997619;28;4139;-68
2022/08/16 02:24:38;;;;;;;;;;;;;;;25.08;66.10;100228.16;5004228;28;4153;-67
2022/08/16 02:27:06;;;;;;;;;;;;;;;25.07;66.07;100228.88;4998781;28;4139;-66
2022/08/16 02:29:33;;;;;;;;;;;;;;;25.06;66.14;100228.13;4998505;28;5359;-66
2022/08/16 02:32:00;;;;;;;;;;;;;;;25.05;65.86;100238.25;4997078;28;4355;-66
2022/08/16 02:34:29;;;;;;;;;;;;;;;25.05;65.88;100231.72;4995673;28;3975;-65
2022/08/16 02:37:05;;;;;;;;;;;;;;;25.04;65.71;100222.31;4998503;28;4157;-65
2022/08/16 02:39:33;;;;;;;;;;;;;;;25.03;66.04;100232.41;4996829;28;4182;-66
2022/08/16 02:42:00;;;;;;;;;;;;;;;25.03;65.89;100225.88;4996668;28;4316;-66
2022/08/16 02:44:26;;;;;;;;;;;;;;;25.03;65.79;100226.63;4998091;28;5305;-66
2022/08/16 02:46:54;;;;;;;;;;;;;;;25.02;65.63;100230.97;4996436;28;4096;-65
2022/08/16 02:49:22;;;;;;;;;;;;;;;25.02;65.38;100233.84;5003460;28;4246;-65
2022/08/16 02:52:09;;;;;;;;;;;;;;;25.00;65.40;100228.03;4995601;28;4167;-67
2022/08/16 02:54:42;;;;;;;;;;;;;;;25.01;65.34;100228.75;5012526;28;5432;-66
2022/08/16 02:57:10;;;;;;;;;;;;;;;25.00;65.16;100222.22;4998873;28;4024;-65
2022/08/16 02:59:37;;;;;;;;;;;;;;;25.00;65.07;100228.03;5004434;28;4123;-65
2022/08/16 03:02:07;;;;;;;;;;;;;;;25.00;65.18;100230.19;5001043;28;4255;-66
2022/08/16 03:04:38;;;;;;;;;;;;;;;24.99;65.04;100238.16;5016128;28;4050;-65
2022/08/16 03:07:18;;;;;;;;;;;;;;;24.99;65.00;100237.41;5001220;28;4191;-65
2022/08/16 03:09:53;;;;;;;;;;;;;;;24.98;65.09;100233.78;5006878;28;6553;-66
2022/08/16 03:12:22;;;;;;;;;;;;;;;24.99;64.79;100237.41;5000954;28;5201;-65
2022/08/16 03:15:01;;;;;;;;;;;;;;;24.98;64.82;100241.75;5001721;28;4346;-66
2022/08/16 03:17:29;;;;;;;;;;;;;;;24.98;65.07;100248.25;4999568;28;4195;-65
2022/08/16 03:20:00;;;;;;;;;;;;;;;24.97;64.94;100246.81;4999026;28;4237;-65
2022/08/16 03:22:34;;;;;;;;;;;;;;;24.98;64.83;100259.84;4999137;28;4181;-66
2022/08/16 03:25:05;;;;;;;;;;;;;;;24.97;64.95;100246.06;5000951;28;4981;-65
2022/08/16 03:27:34;;;;;;;;;;;;;;;24.96;64.81;100239.53;5000094;28;4225;-66
2022/08/16 03:30:07;;;;;;;;;;;;;;;24.94;64.76;100242.38;5000309;28;5219;-65
2022/08/16 03:32:50;;;;;;;;;;;;;;;24.94;64.75;100245.28;5000236;28;4169;-66
2022/08/16 03:35:20;;;;;;;;;;;;;;;24.94;64.79;100248.19;4999488;28;4249;-65
2022/08/16 03:37:47;;;;;;;;;;;;;;;24.94;64.76;100244.56;4999240;28;4528;-65
2022/08/16 03:40:30;;;;;;;;;;;;;;;24.94;64.76;100250.34;5015478;28;4154;-66
2022/08/16 03:42:58;;;;;;;;;;;;;;;24.91;64.73;100249.59;4999374;28;5086;-65
2022/08/16 03:45:45;;;;;;;;;;;;;;;24.93;64.70;100252.53;5015417;28;4290;-66
2022/08/16 03:48:12;;;;;;;;;;;;;;;24.93;64.59;100246.00;5000756;28;4106;-65
2022/08/16 03:50:43;;;;;;;;;;;;;;;24.92;64.44;100256.09;4999783;28;5221;-65
2022/08/16 03:53:28;;;;;;;;;;;;;;;24.92;64.31;100253.94;4998406;28;4094;-65
2022/08/16 03:56:06;;;;;;;;;;;;;;;24.92;64.38;100259.72;5015199;28;4228;-66
2022/08/16 03:58:33;;;;;;;;;;;;;;;24.92;64.38;100268.41;5000589;28;5836;-65
2022/08/16 04:01:03;;;;;;;;;;;;;;;24.92;64.25;100270.59;4999796;28;6402;-66
2022/08/16 04:03:31;;;;;;;;;;;;;;;24.91;64.25;100266.97;4998242;28;4562;-65
2022/08/16 04:05:58;;;;;;;;;;;;;;;24.91;64.15;100261.16;4998747;28;4247;-65
2022/08/16 04:08:30;;;;;;;;;;;;;;;24.91;64.27;100272.75;5005098;28;4208;-66
2022/08/16 04:10:58;;;;;;;;;;;;;;;24.91;64.03;100269.13;5015752;28;5355;-65
2022/08/16 04:13:27;;;;;;;;;;;;;;;24.90;64.28;100268.41;5005543;28;5319;-66
2022/08/16 04:16:16;;;;;;;;;;;;;;;24.90;64.12;100271.31;4998007;28;4202;-66
2022/08/16 04:18:59;;;;;;;;;;;;;;;24.89;64.13;100275.63;4999080;28;4087;-65
2022/08/16 04:21:32;;;;;;;;;;;;;;;24.88;63.93;100268.38;5014507;28;4487;-66
2022/08/16 04:23:59;;;;;;;;;;;;;;;24.89;63.70;100269.81;4999377;28;5320;-66
2022/08/16 04:26:26;;;;;;;;;;;;;;;24.88;63.85;100269.09;5013701;28;4555;-66
2022/08/16 04:28:58;;;;;;;;;;;;;;;24.88;63.69;100262.56;5000714;28;5276;-65
2022/08/16 04:31:45;;;;;;;;;;;;;;;24.88;63.84;100274.16;5004818;28;4163;-65
2022/08/16 04:34:23;;;;;;;;;;;;;;;24.88;63.79;100274.16;4998099;28;4192;-66
2022/08/16 04:36:51;;;;;;;;;;;;;;;24.88;63.88;100279.94;4997321;28;5206;-66
2022/08/16 04:39:18;;;;;;;;;;;;;;;24.87;63.85;100282.09;5000367;28;4237;-66
2022/08/16 04:41:49;;;;;;;;;;;;;;;24.87;63.81;100279.19;4998870;28;4177;-65
2022/08/16 04:44:23;;;;;;;;;;;;;;;24.88;63.73;100294.44;4999886;28;4086;-66
2022/08/16 04:47:09;;;;;;;;;;;;;;;24.87;63.66;100281.34;4998443;28;4169;-66
2022/08/16 04:49:50;;;;;;;;;;;;;;;24.87;63.85;100287.16;4998432;28;4058;-65
2022/08/16 04:52:18;;;;;;;;;;;;;;;24.86;64.01;100289.31;4999721;28;4211;-65
2022/08/16 04:55:01;;;;;;;;;;;;;;;24.86;63.86;100279.91;4998801;28;4354;-65
2022/08/16 04:57:28;;;;;;;;;;;;;;;24.86;63.70;100289.31;4997570;28;4418;-66
2022/08/16 04:59:56;;;;;;;;;;;;;;;24.85;63.76;100284.97;5000005;28;5262;-65
2022/08/16 05:02:23;;;;;;;;;;;;;;;24.86;63.75;100288.59;4998807;28;5285;-65
2022/08/16 05:05:09;;;;;;;;;;;;;;;24.86;63.73;100300.19;5004617;28;6445;-66
2022/08/16 05:07:43;;;;;;;;;;;;;;;24.85;63.83;100295.81;5000269;28;4123;-65
2022/08/16 05:10:26;;;;;;;;;;;;;;;24.86;63.76;100300.91;4997769;28;4047;-65
2022/08/16 05:12:53;;;;;;;;;;;;;;;24.85;63.86;100292.91;4999632;28;4385;-65
2022/08/16 05:15:19;;;;;;;;;;;;;;;24.85;63.70;100299.44;4997474;28;4033;-66
2022/08/16 05:17:47;;;;;;;;;;;;;;;24.86;63.86;100305.97;5014407;28;4145;-65
2022/08/16 05:20:26;;;;;;;;;;;;;;;24.85;64.10;100292.91;4998219;28;4240;-66
2022/08/16 05:23:11;;;;;;;;;;;;;;;24.86;64.05;100300.91;4997556;28;4052;-65
2022/08/16 05:25:40;;;;;;;;;;;;;;;24.87;64.03;100307.41;4997439;28;4016;-65
2022/08/16 05:28:15;;;;;;;;;;;;;;;24.86;63.97;100298.00;4998441;28;5468;-66
2022/08/16 05:30:47;;;;;;;;;;;;;;;24.87;63.88;100307.41;4998058;28;5341;-65
2022/08/16 05:33:20;;;;;;;;;;;;;;;24.87;64.11;100311.03;5005023;28;5484;-65
2022/08/16 05:35:47;;;;;;;;;;;;;;;24.87;64.10;100301.63;5003694;28;4229;-66
2022/08/16 05:38:28;;;;;;;;;;;;;;;24.87;64.28;100307.41;5012574;28;5561;-66
2022/08/16 05:41:06;;;;;;;;;;;;;;;24.87;64.31;100307.41;5004045;28;4198;-66
2022/08/16 05:43:38;;;;;;;;;;;;;;;24.87;64.20;100313.22;4997825;28;4210;-65
2022/08/16 05:46:16;;;;;;;;;;;;;;;24.88;64.33;100314.69;5014046;28;5325;-65
2022/08/16 05:48:57;;;;;;;;;;;;;;;24.87;64.21;100308.16;4998113;28;4202;-65
2022/08/16 05:51:31;;;;;;;;;;;;;;;24.88;64.31;100311.81;5013958;28;4392;-66
2022/08/16 05:54:05;;;;;;;;;;;;;;;24.89;64.24;100313.25;4998233;28;4318;-66
2022/08/16 05:56:31;;;;;;;;;;;;;;;24.88;64.29;100314.69;4998115;28;4179;-66
2022/08/16 05:59:01;;;;;;;;;;;;;;;24.89;64.24;100313.25;4997676;28;4224;-65
2022/08/16 06:01:28;;;;;;;;;;;;;;;24.89;64.41;100310.38;5012368;28;5392;-65
2022/08/16 06:03:58;;;;;;;;;;;;;;;24.88;64.36;100317.59;4996094;28;4213;-66
2022/08/16 06:06:32;;;;;;;;;;;;;;;24.88;64.08;100317.59;4996861;28;4171;-65
2022/08/16 06:09:01;;;;;;;;;;;;;;;24.89;64.39;100321.94;4996937;28;4305;-66
2022/08/16 06:11:28;;;;;;;;;;;;;;;24.89;64.40;100316.16;4997760;28;5761;-65
2022/08/16 06:13:58;;;;;;;;;;;;;;;24.88;64.23;100324.13;4998091;28;4213;-65
2022/08/16 06:16:33;;;;;;;;;;;;;;;24.88;64.26;100326.28;5013670;28;5382;-65
2022/08/16 06:19:00;;;;;;;;;;;;;;;24.89;64.35;100327.75;4997852;28;4117;-66
2022/08/16 06:21:32;;;;;;;;;;;;;;;24.88;64.37;100327.00;4996676;28;4342;-65
2022/08/16 06:24:02;;;;;;;;;;;;;;;24.88;64.28;100337.88;4998000;28;4141;-65
2022/08/16 06:26:49;;;;;;;;;;;;;;;24.90;64.41;100351.63;5012976;28;4830;-65
2022/08/16 06:29:24;;;;;;;;;;;;;;;24.88;64.28;100337.88;4997337;28;5202;-66
2022/08/16 06:31:51;;;;;;;;;;;;;;;24.89;64.40;100345.13;5013750;28;4471;-66
2022/08/16 06:34:18;;;;;;;;;;;;;;;24.88;64.18;100344.38;5007047;28;4398;-66
2022/08/16 06:37:08;;;;;;;;;;;;;;;24.89;64.09;100350.91;5000700;28;4504;-66
2022/08/16 06:39:35;;;;;;;;;;;;;;;24.89;64.23;100356.69;5001061;28;5403;-66
2022/08/16 06:42:30;;;;;;;;;;;;;;;24.88;64.24;100340.75;5007106;28;4167;-66
2022/08/16 06:45:27;;;;;;;;;;;;;;;24.88;64.39;100343.66;5002625;28;4029;-66
2022/08/16 06:48:10;;;;;;;;;;;;;;;24.88;64.17;100343.66;5001182;28;4765;-66
2022/08/16 06:50:37;;;;;;;;;;;;;;;24.88;64.09;100349.44;5000071;28;4210;-65
2022/08/16 06:53:06;;;;;;;;;;;;;;;24.88;63.98;100352.34;5002022;28;4035;-67
2022/08/16 06:55:39;;;;;;;;;;;;;;;24.88;64.29;100355.25;5000344;28;4166;-66
2022/08/16 06:58:09;;;;;;;;;;;;;;;24.88;64.16;100355.97;5001127;28;6311;-65
2022/08/16 07:00:50;;;;;;;;;;;;;;;24.89;64.23;100353.81;5001502;28;4163;-65
2022/08/16 07:03:18;;;;;;;;;;;;;;;24.88;64.15;100355.25;5007614;28;3996;-66
2022/08/16 07:05:52;;;;;;;;;;;;;;;24.88;64.27;100355.97;5001632;28;5426;-66
2022/08/16 07:08:25;;;;;;;;;;;;;;;24.88;64.08;100361.03;4990193;28;4161;-66
2022/08/16 07:10:52;;;;;;;;;;;;;;;24.89;63.95;100368.28;5000038;28;5383;-66
2022/08/16 07:13:20;;;;;;;;;;;;;;;24.88;64.16;100366.81;5000155;28;4493;-66
2022/08/16 07:16:13;;;;;;;;;;;;;;;24.89;64.18;100368.28;5007093;28;4169;-66
2022/08/16 07:18:42;;;;;;;;;;;;;;;24.88;64.30;100375.50;5016443;28;4299;-66
2022/08/16 07:21:27;;;;;;;;;;;;;;;24.88;64.20;100384.94;5000373;28;4098;-66
2022/08/16 07:24:12;;;;;;;;;;;;;;;24.89;64.07;100388.56;5001702;28;5359;-65
2022/08/16 07:26:58;;;;;;;;;;;;;;;24.90;64.20;100383.50;4999672;28;4147;-65
2022/08/16 07:29:26;;;;;;;;;;;;;;;24.88;64.10;100390.00;5000297;28;4111;-66
2022/08/16 07:31:57;;;;;;;;;;;;;;;24.89;64.00;100385.66;5007736;28;4209;-66
2022/08/16 07:34:26;;;;;;;;;;;;;;;24.89;64.02;100394.34;4998993;28;6057;-66
2022/08/16 07:37:08;;;;;;;;;;;;;;;24.89;64.01;100391.44;5000085;28;5460;-66
2022/08/16 07:39:54;;;;;;;;;;;;;;;24.88;64.07;100401.56;5000269;28;4378;-65
2022/08/16 07:42:21;;;;;;;;;;;;;;;24.88;63.83;100396.50;5006450;28;5650;-66
2022/08/16 07:45:00;;;;;;;;;;;;;;;24.88;64.07;100396.50;4999524;28;5378;-66
2022/08/16 07:47:28;;;;;;;;;;;;;;;24.89;63.99;100391.44;4999461;28;4149;-66
2022/08/16 07:49:59;;;;;;;;;;;;;;;24.88;64.01;100398.69;4999772;28;4749;-66
2022/08/16 07:52:33;;;;;;;;;;;;;;;24.88;64.13;100396.50;5001105;28;4183;-66
2022/08/16 07:54:59;;;;;;;;;;;;;;;24.89;63.88;100408.81;5016112;28;4088;-66
2022/08/16 07:57:26;;;;;;;;;;;;;;;24.89;63.99;100403.03;4997502;28;4164;-66
2022/08/16 07:59:53;;;;;;;;;;;;;;;24.89;63.78;100397.25;5006005;28;4367;-66
2022/08/16 08:02:24;;;;;;;;;;;;;;;24.88;64.00;100407.38;4997857;28;4349;-65
2022/08/16 08:04:55;;;;;;;;;;;;;;;24.89;63.93;100403.03;5001081;28;4202;-66
2022/08/16 08:07:24;;;;;;;;;;;;;;;24.86;64.06;100395.75;4999194;28;5208;-66
2022/08/16 08:09:54;;;;;;;;;;;;;;;24.89;63.77;100408.81;4999536;28;4151;-66
2022/08/16 08:12:23;;;;;;;;;;;;;;;24.90;63.79;100409.56;5015566;28;4213;-66
2022/08/16 08:15:04;;;;;;;;;;;;;;;24.88;63.77;100408.09;5005290;28;4062;-66
2022/08/16 08:17:38;;;;;;;;;;;;;;;24.89;63.84;100420.41;4999215;28;4245;-65
2022/08/16 08:20:10;;;;;;;;;;;;;;;24.89;63.69;100411.72;4999824;28;4213;-66
2022/08/16 08:22:38;;;;;;;;;;;;;;;24.88;63.69;100413.88;4999020;28;4392;-66
2022/08/16 08:25:08;;;;;;;;;;;;;;;24.87;63.64;100424.00;5001012;28;4214;-66
2022/08/16 08:27:38;;;;;;;;;;;;;;;24.88;63.85;100436.31;4999541;28;4251;-66
2022/08/16 08:30:09;;;;;;;;;;;;;;;24.87;63.62;100432.69;5005062;28;4003;-66
2022/08/16 08:32:56;;;;;;;;;;;;;;;24.88;63.77;100433.44;5000629;28;4199;-66
2022/08/16 08:35:31;;;;;;;;;;;;;;;24.88;63.92;100433.44;5004598;28;4078;-65
2022/08/16 08:37:59;;;;;;;;;;;;;;;24.87;63.62;100435.56;5005588;28;6546;-65
2022/08/16 08:40:26;;;;;;;;;;;;;;;24.88;63.72;100430.53;4998669;28;5239;-65
2022/08/16 08:42:57;;;;;;;;;;;;;;;24.88;63.96;100421.84;4999255;28;4286;-65
2022/08/16 08:45:37;;;;;;;;;;;;;;;24.87;63.85;100426.88;4998056;28;4260;-66
2022/08/16 08:48:15;;;;;;;;;;;;;;;24.88;63.75;100427.63;5004753;28;5312;-65
2022/08/16 08:51:06;;;;;;;;;;;;;;;24.88;63.64;100430.53;4998512;28;4336;-66
2022/08/16 08:53:41;;;;;;;;;;;;;;;24.89;63.74;100432.00;4998516;28;4355;-66
2022/08/16 08:56:07;;;;;;;;;;;;;;;24.88;63.67;100427.63;5015027;28;4332;-66
2022/08/16 08:58:54;;;;;;;;;;;;;;;24.89;63.74;100426.19;4998990;28;4447;-66
2022/08/16 09:01:31;;;;;;;;;;;;;;;24.88;63.72;100434.16;5003608;28;4157;-66
2022/08/16 09:04:08;;;;;;;;;;;;;;;24.89;63.63;100437.78;5005249;28;4954;-66
2022/08/16 09:06:40;;;;;;;;;;;;;;;24.88;63.76;100434.16;4998729;28;4232;-66
2022/08/16 09:09:09;;;;;;;;;;;;;;;24.89;63.66;100437.78;4999169;28;3995;-66
2022/08/16 09:11:46;;;;;;;;;;;;;;;24.90;63.59;100438.50;4997652;28;4368;-66
2022/08/16 09:14:19;;;;;;;;;;;;;;;24.88;63.65;100439.97;4997982;28;4103;-66
2022/08/16 09:16:51;;;;;;;;;;;;;;;24.89;63.50;100443.59;4997165;28;4317;-66
2022/08/16 09:19:36;;;;;;;;;;;;;;;24.90;63.69;100444.31;4997323;28;4215;-66
2022/08/16 09:22:07;;;;;;;;;;;;;;;24.89;63.57;100443.59;5004977;28;4184;-66
2022/08/16 09:24:45;;;;;;;;;;;;;;;24.89;63.64;100443.59;4997295;28;5259;-66
2022/08/16 09:27:22;;;;;;;;;;;;;;;24.90;63.70;100442.16;4997811;28;4124;-67
2022/08/16 09:29:51;;;;;;;;;;;;;;;24.89;63.61;100443.59;4997797;28;4203;-66
2022/08/16 09:32:26;;;;;;;;;;;;;;;24.89;63.49;100449.38;4998746;28;4517;-66
2022/08/16 09:34:55;;;;;;;;;;;;;;;24.90;63.71;100456.66;4999359;28;5567;-65
2022/08/16 09:37:24;;;;;;;;;;;;;;;24.90;63.64;100450.09;4999665;28;5314;-65
2022/08/16 09:39:58;;;;;;;;;;;;;;;24.90;63.48;100442.16;4999369;28;4142;-66
2022/08/16 09:42:26;;;;;;;;;;;;;;;24.89;63.60;100440.69;4999732;28;4133;-66
2022/08/16 09:44:52;;;;;;;;;;;;;;;24.91;63.49;100437.84;4999343;28;4158;-65
2022/08/16 09:47:39;;;;;;;;;;;;;;;24.91;63.61;100437.09;4998198;28;5029;-66
2022/08/16 09:50:24;;;;;;;;;;;;;;;24.91;63.55;100434.22;4999654;28;4133;-66
2022/08/16 09:52:50;;;;;;;;;;;;;;;24.90;63.49;100436.38;4999270;28;4159;-66
2022/08/16 09:55:17;;;;;;;;;;;;;;;24.91;63.43;100437.84;4999602;28;4040;-66
2022/08/16 09:57:43;;;;;;;;;;;;;;;24.90;63.59;100432.72;4999354;28;4158;-66
2022/08/16 10:00:18;;;;;;;;;;;;;;;24.91;63.75;100437.09;4998578;28;4056;-66
2022/08/16 10:03:04;;;;;;;;;;;;;;;24.93;63.41;100443.66;4998070;28;4141;-66
2022/08/16 10:05:36;;;;;;;;;;;;;;;24.94;63.66;100436.44;4999867;28;5148;-66
2022/08/16 10:08:03;;;;;;;;;;;;;;;24.93;63.60;100440.78;5000856;28;4251;-67
2022/08/16 10:13:35;;;;;;;;;;;;;;;24.94;63.74;100433.53;5004825;28;5378;-66
2022/08/16 10:16:01;;;;;;;;;;;;;;;24.94;63.52;100424.84;5004963;28;3995;-66
2022/08/16 10:18:28;;;;;;;;;;;;;;;24.94;63.42;100433.53;5004496;28;4198;-67
2022/08/16 10:21:15;;;;;;;;;;;;;;;24.93;63.55;100432.09;5005343;28;4685;-68
2022/08/16 10:23:42;;;;;;;;;;;;;;;24.94;63.73;100436.44;5004160;28;5167;-66
2022/08/16 10:26:08;;;;;;;;;;;;;;;24.94;63.69;100438.59;5004443;28;4292;-66
2022/08/16 10:28:55;;;;;;;;;;;;;;;24.92;63.73;100435.66;5005479;28;4166;-67
2022/08/16 10:31:21;;;;;;;;;;;;;;;24.92;63.81;100436.41;5004394;28;4256;-67
2022/08/16 10:34:07;;;;;;;;;;;;;;;24.93;63.78;100434.25;5004375;28;4512;-67
2022/08/16 10:36:54;;;;;;;;;;;;;;;24.93;63.93;100434.25;5004861;28;4378;-67
2022/08/16 10:39:20;;;;;;;;;;;;;;;24.93;63.95;100432.09;5004218;28;4225;-67
2022/08/16 10:41:49;;;;;;;;;;;;;;;24.92;64.08;100433.50;5004364;28;4195;-67
2022/08/16 10:44:16;;;;;;;;;;;;;;;24.93;63.92;100426.28;5005222;28;4546;-66
2022/08/16 10:46:42;;;;;;;;;;;;;;;24.94;64.10;100433.53;5003115;28;4263;-67
2022/08/16 10:49:10;;;;;;;;;;;;;;;24.96;63.98;100424.91;5005891;28;4210;-66
2022/08/16 10:51:38;;;;;;;;;;;;;;;24.96;64.26;100430.69;5005113;28;4187;-67
2022/08/16 10:54:24;;;;;;;;;;;;;;;24.97;63.99;100434.31;5004191;28;4184;-67
2022/08/16 10:56:56;;;;;;;;;;;;;;;24.99;64.09;100429.31;5004623;28;4438;-67
2022/08/16 10:59:24;;;;;;;;;;;;;;;25.01;63.90;100426.44;5005710;28;5586;-67
2022/08/16 11:02:11;;;;;;;;;;;;;;;25.00;63.84;100424.25;5005910;28;4251;-66
2022/08/16 11:04:58;;;;;;;;;;;;;;;24.96;64.07;100427.78;5005263;28;5117;-67
2022/08/16 11:07:34;;;;;;;;;;;;;;;24.95;64.12;100435.03;5005451;28;4442;-67
2022/08/16 11:10:10;;;;;;;;;;;;;;;24.98;64.38;100422.03;5005916;28;4245;-67
2022/08/16 11:12:56;;;;;;;;;;;;;;;24.99;64.74;100414.84;5005373;28;4372;-67
2022/08/16 11:15:43;;;;;;;;;;;;;;;24.99;64.79;100416.97;5005073;28;4147;-66
2022/08/16 11:18:21;;;;;;;;;;;;;;;24.99;64.57;100411.94;5004879;28;4402;-67
2022/08/16 11:21:07;;;;;;;;;;;;;;;24.98;64.82;100422.03;5000925;28;4497;-67
2022/08/16 11:23:34;;;;;;;;;;;;;;;24.98;64.91;100416.25;5000985;28;4402;-68
2022/08/16 11:26:00;;;;;;;;;;;;;;;24.99;64.99;100429.31;5001545;28;4074;-67
2022/08/16 11:28:49;;;;;;;;;;;;;;;24.99;65.21;100432.22;5001039;28;5296;-66
2022/08/16 11:31:35;;;;;;;;;;;;;;;25.00;65.23;100433.69;4999418;28;4230;-67
2022/08/16 11:34:03;;;;;;;;;;;;;;;25.00;65.40;100436.56;5000566;28;4521;-70
2022/08/16 11:36:29;;;;;;;;;;;;;;;25.01;65.63;100437.31;5001286;28;4188;-68
2022/08/16 11:38:58;;;;;;;;;;;;;;;25.01;65.73;100437.31;5001930;28;5226;-68
2022/08/16 11:41:26;;;;;;;;;;;;;;;25.02;65.83;100433.72;5001550;28;4202;-70
2022/08/16 11:43:56;;;;;;;;;;;;;;;25.01;65.88;100443.81;5001127;28;4402;-70
2022/08/16 11:46:22;;;;;;;;;;;;;;;25.01;65.90;100432.25;5001708;28;4234;-70
2022/08/16 11:49:08;;;;;;;;;;;;;;;25.02;66.08;100441.69;5000765;28;4189;-68
2022/08/16 11:51:42;;;;;;;;;;;;;;;25.01;66.05;100434.41;5000472;28;4288;-67
2022/08/16 11:54:09;;;;;;;;;;;;;;;25.01;66.16;100432.25;5000888;28;5629;-69
2022/08/16 11:56:47;;;;;;;;;;;;;;;25.03;66.50;100417.78;5001491;28;4362;-70
2022/08/16 11:59:22;;;;;;;;;;;;;;;25.05;66.33;100425.81;4999572;28;4055;-71
2022/08/16 12:01:50;;;;;;;;;;;;;;;25.04;66.50;100427.97;5000478;28;5430;-68
2022/08/16 12:04:24;;;;;;;;;;;;;;;25.04;66.67;100422.19;5001273;28;4241;-67
2022/08/16 12:06:51;;;;;;;;;;;;;;;25.05;66.73;100432.31;4998224;28;4350;-68
2022/08/16 12:09:19;;;;;;;;;;;;;;;25.06;66.69;100422.22;4998003;28;4333;-68
2022/08/16 12:11:46;;;;;;;;;;;;;;;25.05;66.79;100434.50;5000711;28;5212;-68
2022/08/16 12:14:18;;;;;;;;;;;;;;;25.05;66.82;100438.13;5001281;28;4088;-68
2022/08/16 12:16:48;;;;;;;;;;;;;;;25.07;66.81;100426.56;4997235;28;4172;-68
2022/08/16 12:19:21;;;;;;;;;;;;;;;25.05;66.95;100437.38;4995697;28;4259;-68
2022/08/16 12:21:58;;;;;;;;;;;;;;;25.07;66.65;100437.44;4995509;28;4250;-68
2022/08/16 12:24:25;;;;;;;;;;;;;;;25.06;66.62;100439.59;4994938;28;4179;-68
2022/08/16 12:26:52;;;;;;;;;;;;;;;25.06;66.79;100442.50;4994852;28;4035;-68
2022/08/16 12:29:19;;;;;;;;;;;;;;;25.06;66.66;100433.06;4996272;28;5173;-69
2022/08/16 12:31:45;;;;;;;;;;;;;;;25.06;66.55;100439.59;4995185;28;4147;-68
2022/08/16 12:34:32;;;;;;;;;;;;;;;25.06;66.55;100442.50;4996081;28;4578;-68
2022/08/16 12:37:01;;;;;;;;;;;;;;;25.07;66.33;100446.13;4994194;28;4576;-68
2022/08/16 12:39:31;;;;;;;;;;;;;;;25.07;66.42;100441.06;4995384;28;4411;-69
2022/08/16 12:41:58;;;;;;;;;;;;;;;25.08;66.40;100436.75;4991029;28;4312;-68
2022/08/16 12:44:26;;;;;;;;;;;;;;;25.07;66.53;100435.25;4985862;28;4096;-68
2022/08/16 12:49:41;;;;;;;;;;;;;;;25.08;66.20;100436.75;4984567;28;4257;-69
2022/08/16 12:52:08;;;;;;;;;;;;;;;25.09;66.25;100437.47;4984417;28;4063;-68
2022/08/16 12:54:56;;;;;;;;;;;;;;;25.08;66.24;100430.97;4983360;28;4189;-68
2022/08/16 12:57:24;;;;;;;;;;;;;;;25.08;66.21;100436.75;4984958;28;5253;-69
2022/08/16 13:00:03;;;;;;;;;;;;;;;25.08;66.16;100425.16;4988084;28;4025;-69
2022/08/16 13:02:30;;;;;;;;;;;;;;;25.08;66.10;100422.25;4993131;28;4243;-68
2022/08/16 13:05:01;;;;;;;;;;;;;;;25.11;66.04;100428.09;4994599;28;5039;-69
2022/08/16 13:07:31;;;;;;;;;;;;;;;25.10;66.00;100427.34;4993298;28;4212;-69
2022/08/16 13:10:12;;;;;;;;;;;;;;;25.09;65.91;100420.81;4994014;28;4377;-68
2022/08/16 13:12:58;;;;;;;;;;;;;;;25.08;65.94;100413.56;4992884;28;4362;-67
2022/08/16 13:15:25;;;;;;;;;;;;;;;25.08;65.87;100425.16;4993990;28;4979;-68
2022/08/16 13:17:53;;;;;;;;;;;;;;;25.08;65.83;100430.97;4993032;28;4554;-67
2022/08/16 13:20:21;;;;;;;;;;;;;;;25.09;65.82;100420.81;4991788;28;4222;-67
2022/08/16 13:22:48;;;;;;;;;;;;;;;25.09;65.81;100425.88;4991147;28;5417;-67
2022/08/16 13:25:16;;;;;;;;;;;;;;;25.09;65.67;100431.69;4991243;28;5291;-67
2022/08/16 13:27:46;;;;;;;;;;;;;;;25.08;65.78;100425.16;4993299;28;5637;-67